Time;durP1;ratioP1;P1;durP2;ratioP2;P2;SDS_P1;SDS_P2;PMS_P1;PMS_P2;Temp;Humidity;BMP_temperature;BMP_pressure;BME280_temperature;BME280_humidity;BME280_pressure;Samples;Min_cycle;Max_cycle;Signal;HPM_P1;HPM_P2
2022/02/11 00:00:53;;;;;;;2.33;2.13;;;4.70;99.90;;;;;;5000655;28;20199;-80
2022/02/11 00:08:21;;;;;;;2.60;1.77;;;4.70;99.90;;;;;;4998580;28;20204;-76
2022/02/11 00:10:46;;;;;;;2.70;1.83;;;4.70;99.90;;;;;;4999048;28;20180;-79
2022/02/11 00:13:12;;;;;;;3.53;1.60;;;4.70;99.90;;;;;;5013596;28;20180;-78
2022/02/11 00:18:05;;;;;;;1.50;1.20;;;4.60;99.90;;;;;;4999591;28;20206;-77
2022/02/11 00:20:31;;;;;;;1.73;1.30;;;4.60;99.90;;;;;;5006664;28;20188;-78
2022/02/11 00:22:56;;;;;;;4.63;1.70;;;4.50;99.90;;;;;;4999833;28;20191;-77
2022/02/11 00:25:22;;;;;;;4.30;1.50;;;4.50;99.90;;;;;;5013466;28;20647;-78
2022/02/11 00:28:56;;;;;;;3.07;1.40;;;4.50;99.90;;;;;;4997588;28;20207;-79
2022/02/11 00:35:37;;;;;;;3.03;1.60;;;4.40;99.90;;;;;;5000833;28;20175;-78
2022/02/11 00:38:09;;;;;;;2.87;2.33;;;4.40;99.90;;;;;;5013962;28;20686;-78
2022/02/11 00:45:44;;;;;;;2.20;1.23;;;4.40;99.90;;;;;;4998902;28;20173;-79
2022/02/11 01:04:32;;;;;;;2.03;1.20;;;4.50;99.90;;;;;;4999629;28;20290;-80
2022/02/11 01:06:58;;;;;;;1.30;0.87;;;4.50;99.90;;;;;;5014043;28;20228;-80
2022/02/11 01:09:23;;;;;;;1.87;1.10;;;4.50;99.90;;;;;;5001023;28;20287;-77
2022/02/11 01:11:52;;;;;;;2.57;1.13;;;4.50;99.90;;;;;;5000607;28;20184;-77
2022/02/11 01:14:32;;;;;;;1.00;0.90;;;4.50;99.90;;;;;;5014334;28;20188;-78
2022/02/11 01:17:06;;;;;;;0.70;0.60;;;4.40;99.90;;;;;;4999369;28;20199;-77
2022/02/11 01:19:41;;;;;;;2.10;0.83;;;4.40;99.90;;;;;;4999578;28;20226;-78
2022/02/11 01:22:19;;;;;;;2.00;0.90;;;4.30;99.90;;;;;;4999550;28;20176;-78
2022/02/11 01:27:33;;;;;;;1.60;1.30;;;4.30;99.90;;;;;;4997648;28;20183;-77
2022/02/11 01:44:13;;;;;;;2.40;1.30;;;4.20;99.90;;;;;;5001132;28;20179;-79
2022/02/11 01:51:58;;;;;;;1.70;1.50;;;4.10;99.90;;;;;;5004625;28;20240;-78
2022/02/11 01:54:49;;;;;;;2.80;1.63;;;4.20;99.90;;;;;;5006832;28;20226;-79
2022/02/11 02:00:26;;;;;;;2.90;1.60;;;4.20;99.90;;;;;;5001694;28;20207;-78
2022/02/11 02:19:39;;;;;;;2.30;1.57;;;4.10;99.90;;;;;;5002530;28;20200;-79
2022/02/11 02:24:51;;;;;;;2.93;1.80;;;4.00;99.90;;;;;;5003844;28;20306;-79
2022/02/11 02:33:16;;;;;;;2.97;2.10;;;4.10;99.90;;;;;;5000848;28;20639;-79
2022/02/11 02:57:27;;;;;;;4.70;2.10;;;4.10;99.90;;;;;;5000960;28;20203;-79
2022/02/11 03:00:13;;;;;;;3.77;2.10;;;4.10;99.90;;;;;;4999645;28;20180;-78
2022/02/11 03:49:14;;;;;;;4.87;3.17;;;3.90;99.90;;;;;;4983043;28;20306;-80
2022/02/11 03:52:11;;;;;;;4.73;2.93;;;3.90;99.90;;;;;;5002139;28;20180;-81
2022/02/11 04:22:30;;;;;;;5.83;4.20;;;3.90;99.90;;;;;;5002940;28;20271;-80
2022/02/11 04:52:32;;;;;;;4.77;3.63;;;3.70;99.90;;;;;;5003369;28;20222;-79
2022/02/11 04:55:06;;;;;;;4.27;3.87;;;3.30;99.90;;;;;;5001977;28;20189;-77
2022/02/11 05:00:16;;;;;;;5.67;3.67;;;3.40;99.90;;;;;;5000560;28;20250;-76
2022/02/11 05:02:45;;;;;;;5.97;4.07;;;3.40;99.90;;;;;;5002102;28;20188;-79
2022/02/11 05:05:11;;;;;;;4.77;3.50;;;3.40;99.90;;;;;;5008042;28;20186;-78
2022/02/11 05:07:37;;;;;;;5.63;4.10;;;3.30;99.90;;;;;;4998331;28;20215;-75
2022/02/11 05:10:05;;;;;;;6.03;4.23;;;3.30;99.90;;;;;;5001367;28;20246;-76
2022/02/11 05:12:31;;;;;;;4.30;3.57;;;3.30;99.90;;;;;;4997090;28;20215;-78
2022/02/11 05:14:56;;;;;;;4.80;4.00;;;3.10;99.90;;;;;;5001354;28;20198;-77
2022/02/11 05:17:22;;;;;;;6.73;4.30;;;3.10;99.90;;;;;;5001871;28;20251;-78
2022/02/11 05:19:47;;;;;;;4.60;3.80;;;3.00;99.90;;;;;;4998394;28;20235;-81
2022/02/11 05:22:13;;;;;;;5.43;4.03;;;3.00;99.90;;;;;;4998009;28;20194;-79
2022/02/11 05:24:39;;;;;;;5.07;3.77;;;2.80;99.90;;;;;;4999003;28;20192;-77
2022/02/11 05:27:04;;;;;;;5.93;3.90;;;2.90;99.90;;;;;;5017989;28;20278;-77
2022/02/11 05:29:30;;;;;;;7.10;4.10;;;2.90;99.90;;;;;;5021912;28;20200;-78
2022/02/11 05:31:56;;;;;;;5.77;4.07;;;3.00;99.90;;;;;;5005557;28;20183;-77
2022/02/11 05:34:21;;;;;;;4.80;3.83;;;3.00;99.90;;;;;;5008510;28;20192;-79
2022/02/11 05:36:47;;;;;;;4.33;3.70;;;2.90;99.90;;;;;;5007944;28;20261;-77
2022/02/11 05:39:13;;;;;;;6.30;3.97;;;2.80;99.90;;;;;;5021586;28;20641;-76
2022/02/11 05:41:38;;;;;;;6.53;4.77;;;2.70;99.90;;;;;;5022178;28;20555;-77
2022/02/11 05:44:04;;;;;;;8.47;5.27;;;2.60;99.90;;;;;;5005484;28;20190;-77
2022/02/11 05:46:29;;;;;;;6.63;4.60;;;2.50;99.90;;;;;;5005761;28;20188;-78
2022/02/11 05:48:55;;;;;;;5.23;4.23;;;2.50;99.90;;;;;;5005979;28;20211;-77
2022/02/11 05:51:21;;;;;;;7.77;4.57;;;2.40;99.90;;;;;;5003005;28;20312;-76
2022/02/11 05:53:47;;;;;;;6.80;4.57;;;2.40;99.90;;;;;;5006573;28;20195;-78
2022/02/11 05:56:12;;;;;;;8.93;5.10;;;2.40;99.90;;;;;;5004396;28;20216;-75
2022/02/11 05:58:38;;;;;;;6.43;4.50;;;2.30;99.90;;;;;;5003328;28;20227;-77
2022/02/11 06:01:05;;;;;;;9.73;5.20;;;2.30;99.90;;;;;;5001777;28;20196;-77
2022/02/11 06:03:31;;;;;;;5.83;4.67;;;2.30;99.90;;;;;;5015418;28;20195;-76
2022/02/11 06:05:57;;;;;;;7.53;4.77;;;2.30;99.90;;;;;;4999647;28;20211;-77
2022/02/11 06:08:22;;;;;;;6.77;4.57;;;2.30;99.90;;;;;;5014977;28;20216;-76
2022/02/11 06:10:48;;;;;;;7.43;5.13;;;2.20;99.90;;;;;;4996290;28;20759;-78
2022/02/11 06:13:15;;;;;;;6.27;4.70;;;2.30;99.90;;;;;;5003177;28;20216;-76
2022/02/11 06:15:43;;;;;;;6.40;4.77;;;2.20;99.90;;;;;;5022006;28;20214;-79
2022/02/11 06:18:08;;;;;;;6.70;5.60;;;2.10;99.90;;;;;;5006626;28;20207;-78
2022/02/11 06:20:34;;;;;;;7.87;5.63;;;2.10;99.90;;;;;;5004829;28;20196;-77
2022/02/11 06:23:00;;;;;;;7.37;5.10;;;2.10;99.90;;;;;;5022443;28;20190;-80
2022/02/11 06:25:25;;;;;;;7.70;5.10;;;2.10;99.90;;;;;;5006108;28;20195;-76
2022/02/11 06:27:51;;;;;;;7.37;4.90;;;2.10;99.90;;;;;;5020119;28;20277;-79
2022/02/11 06:30:17;;;;;;;7.60;5.30;;;2.00;99.90;;;;;;5006205;28;20255;-76
2022/02/11 06:32:42;;;;;;;8.03;4.97;;;1.90;99.90;;;;;;5007572;28;20188;-80
2022/02/11 06:35:11;;;;;;;7.10;5.17;;;1.90;99.90;;;;;;5022432;28;20279;-77
2022/02/11 06:37:37;;;;;;;7.73;4.80;;;2.10;99.90;;;;;;5004697;28;20212;-79
2022/02/11 06:40:04;;;;;;;10.57;5.17;;;2.10;99.90;;;;;;5004755;28;20230;-79
2022/02/11 06:42:29;;;;;;;9.27;4.87;;;2.30;99.90;;;;;;5005904;28;20623;-76
2022/02/11 06:44:55;;;;;;;8.60;5.00;;;2.30;99.90;;;;;;5002036;28;20642;-79
2022/02/11 06:47:21;;;;;;;10.37;5.27;;;2.50;99.90;;;;;;4999529;28;20650;-77
2022/02/11 06:49:47;;;;;;;10.33;5.27;;;2.60;99.90;;;;;;5001300;28;20188;-76
2022/02/11 06:52:13;;;;;;;8.33;4.67;;;2.70;99.90;;;;;;5013746;28;20243;-77
2022/02/11 06:54:39;;;;;;;6.57;4.50;;;2.70;99.90;;;;;;5001529;28;20183;-77
2022/02/11 06:57:04;;;;;;;8.13;5.27;;;2.70;99.90;;;;;;5000362;28;20227;-79
2022/02/11 06:59:30;;;;;;;7.63;5.10;;;2.80;99.90;;;;;;5015570;28;20674;-77
2022/02/11 07:01:56;;;;;;;9.40;6.03;;;2.90;99.90;;;;;;4999534;28;20674;-78
2022/02/11 07:04:21;;;;;;;8.03;5.40;;;3.00;99.90;;;;;;5016035;28;20179;-78
2022/02/11 07:06:48;;;;;;;10.17;4.83;;;3.10;99.90;;;;;;4996461;28;20191;-77
2022/02/11 07:09:13;;;;;;;7.70;4.80;;;3.20;99.90;;;;;;4999850;28;20230;-78
2022/02/11 07:11:39;;;;;;;6.67;5.30;;;3.20;99.90;;;;;;5014707;28;21227;-77
2022/02/11 07:14:05;;;;;;;6.97;4.50;;;3.30;99.90;;;;;;5014429;28;20188;-77
2022/02/11 07:16:30;;;;;;;9.03;4.70;;;3.30;99.90;;;;;;4998295;28;20291;-77
2022/02/11 07:18:56;;;;;;;9.50;4.87;;;3.30;99.90;;;;;;4998946;28;20203;-77
2022/02/11 07:21:21;;;;;;;7.00;4.57;;;3.20;99.90;;;;;;5015872;28;21183;-77
2022/02/11 07:23:47;;;;;;;8.13;4.83;;;3.20;99.90;;;;;;4999572;28;20270;-79
2022/02/11 07:26:13;;;;;;;11.17;5.23;;;3.20;99.90;;;;;;4998383;28;20304;-77
2022/02/11 07:28:38;;;;;;;9.03;5.37;;;3.20;99.90;;;;;;4997673;28;20262;-78
2022/02/11 07:31:04;;;;;;;8.27;5.13;;;3.20;99.90;;;;;;5014047;28;20191;-78
2022/02/11 07:33:30;;;;;;;9.03;5.37;;;3.30;99.90;;;;;;4997912;28;20275;-77
2022/02/11 07:35:56;;;;;;;8.17;4.60;;;3.20;99.90;;;;;;4997723;28;20662;-78
2022/02/11 07:38:22;;;;;;;7.77;5.10;;;3.30;99.90;;;;;;4997618;28;20208;-77
2022/02/11 07:40:48;;;;;;;7.33;4.90;;;3.30;99.90;;;;;;5012774;28;20241;-80
2022/02/11 07:43:14;;;;;;;8.73;4.80;;;3.30;99.90;;;;;;4999247;28;20322;-77
2022/02/11 07:45:39;;;;;;;8.67;5.80;;;3.30;99.90;;;;;;5015183;28;20667;-77
2022/02/11 07:48:05;;;;;;;8.87;4.77;;;3.30;99.90;;;;;;4998974;28;20212;-79
2022/02/11 07:50:31;;;;;;;9.00;5.63;;;3.30;99.90;;;;;;4999363;28;20652;-79
2022/02/11 07:52:57;;;;;;;7.67;5.43;;;3.30;99.90;;;;;;4998236;28;20199;-77
2022/02/11 07:55:23;;;;;;;8.93;5.27;;;3.40;99.90;;;;;;4998807;28;20853;-77
2022/02/11 07:57:49;;;;;;;9.33;5.60;;;3.40;99.90;;;;;;4997166;28;20223;-77
2022/02/11 08:00:15;;;;;;;7.53;5.23;;;3.40;99.90;;;;;;5015911;28;20187;-78
2022/02/11 08:02:41;;;;;;;8.13;6.03;;;3.40;99.90;;;;;;5013135;28;20219;-77
2022/02/11 08:05:10;;;;;;;6.87;5.20;;;3.40;99.90;;;;;;5012198;28;20183;-79
2022/02/11 08:07:35;;;;;;;8.97;5.60;;;3.50;99.90;;;;;;5016104;28;20226;-79
2022/02/11 08:10:01;;;;;;;9.20;5.70;;;3.50;99.90;;;;;;5013487;28;20180;-77
2022/02/11 08:12:27;;;;;;;7.00;5.43;;;3.50;99.90;;;;;;4999070;28;20199;-77
2022/02/11 08:14:53;;;;;;;8.27;4.93;;;3.50;99.90;;;;;;5014901;28;20602;-78
2022/02/11 08:17:18;;;;;;;7.77;5.37;;;3.60;99.90;;;;;;4998861;28;20234;-77
2022/02/11 08:19:44;;;;;;;11.37;6.73;;;3.60;99.90;;;;;;5013652;28;20227;-77
2022/02/11 08:22:09;;;;;;;7.27;5.33;;;3.50;99.90;;;;;;5012567;28;20410;-77
2022/02/11 08:24:35;;;;;;;6.73;5.10;;;3.70;99.90;;;;;;4996035;28;20184;-77
2022/02/11 08:27:01;;;;;;;7.97;5.20;;;3.70;99.90;;;;;;5006672;28;20184;-77
2022/02/11 08:29:31;;;;;;;10.17;5.80;;;3.70;99.90;;;;;;4991777;28;20215;-78
2022/02/11 08:31:57;;;;;;;6.47;5.10;;;3.70;99.90;;;;;;5011184;28;20647;-77
2022/02/11 08:34:23;;;;;;;6.97;5.33;;;3.70;99.90;;;;;;5005724;28;20218;-78
2022/02/11 08:36:49;;;;;;;8.80;5.33;;;3.80;99.90;;;;;;4990060;28;20291;-78
2022/02/11 08:39:16;;;;;;;6.50;5.00;;;3.80;99.90;;;;;;5006874;28;20307;-77
2022/02/11 08:41:42;;;;;;;5.83;4.67;;;3.80;99.90;;;;;;4992845;28;20537;-78
2022/02/11 08:44:07;;;;;;;5.50;4.83;;;3.80;99.90;;;;;;5009743;28;20660;-78
2022/02/11 08:46:33;;;;;;;7.50;4.93;;;3.80;99.90;;;;;;4992640;28;20195;-79
2022/02/11 08:48:58;;;;;;;6.27;5.00;;;3.90;99.90;;;;;;5004522;28;20223;-78
2022/02/11 08:51:24;;;;;;;5.07;4.30;;;3.90;99.90;;;;;;4995554;28;20192;-78
2022/02/11 08:53:51;;;;;;;6.83;5.07;;;3.90;99.90;;;;;;5012492;28;20192;-78
2022/02/11 08:56:17;;;;;;;5.60;4.43;;;3.90;99.90;;;;;;4994649;28;20348;-78
2022/02/11 08:58:44;;;;;;;4.23;3.80;;;4.00;99.90;;;;;;5009651;28;20204;-78
2022/02/11 09:01:10;;;;;;;6.93;4.70;;;4.10;99.90;;;;;;5012643;28;20188;-78
2022/02/11 09:03:36;;;;;;;4.67;4.10;;;4.20;99.90;;;;;;4990713;28;20196;-79
2022/02/11 09:06:04;;;;;;;4.10;3.67;;;4.30;99.90;;;;;;4988175;28;20190;-78
2022/02/11 09:08:30;;;;;;;6.93;4.63;;;4.30;99.90;;;;;;4992396;28;20215;-78
2022/02/11 09:10:55;;;;;;;4.57;3.90;;;4.40;99.90;;;;;;4992204;28;20215;-78
2022/02/11 09:13:23;;;;;;;4.60;3.40;;;4.40;99.90;;;;;;5006506;28;20207;-78
2022/02/11 09:15:48;;;;;;;4.07;3.57;;;4.40;99.90;;;;;;4999207;28;20765;-78
2022/02/11 09:18:14;;;;;;;3.60;3.30;;;4.40;99.90;;;;;;4997635;28;20650;-78
2022/02/11 09:20:40;;;;;;;5.20;3.50;;;4.50;99.90;;;;;;5010583;28;20181;-78
2022/02/11 09:23:06;;;;;;;5.30;3.33;;;4.50;99.90;;;;;;4987462;28;20547;-78
2022/02/11 09:25:33;;;;;;;4.47;3.07;;;4.60;99.90;;;;;;5007098;28;20186;-78
2022/02/11 09:27:59;;;;;;;4.37;3.53;;;4.70;99.90;;;;;;4989671;28;20200;-78
2022/02/11 09:30:26;;;;;;;3.60;3.20;;;4.80;99.90;;;;;;5012869;28;20599;-78
2022/02/11 09:32:52;;;;;;;3.70;2.93;;;4.80;99.90;;;;;;5011269;28;20226;-78
2022/02/11 09:35:20;;;;;;;4.27;3.47;;;4.80;99.90;;;;;;4989816;28;20184;-78
2022/02/11 09:37:45;;;;;;;4.53;3.17;;;4.80;99.90;;;;;;4993177;28;20311;-78
2022/02/11 09:40:14;;;;;;;3.30;2.80;;;4.80;99.90;;;;;;4997631;28;20240;-78
2022/02/11 09:42:39;;;;;;;2.97;2.67;;;4.70;99.90;;;;;;5003092;28;20173;-79
2022/02/11 09:45:07;;;;;;;3.17;2.53;;;4.70;99.90;;;;;;4993251;28;20184;-78
2022/02/11 09:47:36;;;;;;;4.10;2.60;;;4.70;99.90;;;;;;4987831;28;20200;-78
2022/02/11 09:50:04;;;;;;;3.20;2.70;;;4.80;99.90;;;;;;5006632;28;20185;-78
2022/02/11 09:52:38;;;;;;;3.07;2.37;;;4.90;99.90;;;;;;5008336;28;20575;-78
2022/02/11 09:57:49;;;;;;;2.20;1.83;;;4.90;99.90;;;;;;4992665;28;20223;-78
2022/02/11 10:00:15;;;;;;;2.70;1.80;;;4.90;99.90;;;;;;5005173;28;20555;-78
2022/02/11 10:02:52;;;;;;;3.00;1.63;;;4.90;99.90;;;;;;5002961;28;20291;-79
2022/02/11 10:05:33;;;;;;;4.27;1.87;;;5.00;99.90;;;;;;5005497;28;20180;-79
2022/02/11 10:08:00;;;;;;;1.50;1.30;;;5.10;99.90;;;;;;4985347;28;20678;-79
2022/02/11 10:10:39;;;;;;;4.17;1.30;;;5.10;99.90;;;;;;4999726;28;20546;-79
2022/02/11 10:13:07;;;;;;;1.80;1.30;;;5.20;99.90;;;;;;4993170;28;20187;-78
2022/02/11 10:15:36;;;;;;;2.33;1.00;;;5.20;99.90;;;;;;5007856;28;20184;-77
2022/02/11 10:18:03;;;;;;;1.13;0.87;;;5.30;99.90;;;;;;4998478;28;20226;-77
2022/02/11 10:20:29;;;;;;;2.67;1.20;;;5.50;99.90;;;;;;5002729;28;20186;-78
2022/02/11 10:23:17;;;;;;;2.37;0.90;;;5.50;99.90;;;;;;5003969;28;20651;-78
2022/02/11 10:26:06;;;;;;;1.90;0.70;;;5.60;99.90;;;;;;4989924;28;20885;-77
2022/02/11 10:28:48;;;;;;;1.00;0.90;;;5.40;99.90;;;;;;4988182;28;20689;-79
2022/02/11 10:31:34;;;;;;;3.60;1.13;;;5.40;99.90;;;;;;4992560;28;20184;-77
2022/02/11 10:34:11;;;;;;;1.40;0.80;;;5.30;99.90;;;;;;5002560;28;20187;-79
2022/02/11 10:36:48;;;;;;;1.30;0.90;;;5.30;99.90;;;;;;4989420;28;20724;-77
2022/02/11 10:39:22;;;;;;;2.33;0.80;;;5.20;99.90;;;;;;5011288;28;20720;-77
2022/02/11 10:42:02;;;;;;;0.83;0.80;;;5.00;99.90;;;;;;4997120;28;20191;-77
2022/02/11 10:44:30;;;;;;;1.37;1.03;;;5.00;99.90;;;;;;4986359;28;20187;-76
2022/02/11 10:47:04;;;;;;;1.80;0.90;;;4.90;99.90;;;;;;5003368;28;20188;-78
2022/02/11 10:49:35;;;;;;;0.60;0.60;;;5.00;99.90;;;;;;4995304;28;20207;-77
2022/02/11 10:52:17;;;;;;;2.77;0.80;;;5.00;99.90;;;;;;4989458;28;20199;-79
2022/02/11 10:54:44;;;;;;;1.77;0.83;;;4.90;99.90;;;;;;4986937;28;20655;-76
2022/02/11 10:57:13;;;;;;;1.67;0.80;;;4.90;99.90;;;;;;5007381;28;20215;-79
2022/02/11 10:59:44;;;;;;;1.20;0.73;;;4.80;99.90;;;;;;4992871;28;20505;-79
2022/02/11 11:02:13;;;;;;;0.67;0.63;;;4.80;99.90;;;;;;4989560;28;20223;-79
2022/02/11 11:04:39;;;;;;;2.90;1.27;;;4.70;99.90;;;;;;5001270;28;20238;-78
2022/02/11 11:07:07;;;;;;;2.70;1.07;;;4.70;99.90;;;;;;5004142;28;20188;-77
2022/02/11 11:09:35;;;;;;;3.00;1.00;;;4.80;99.90;;;;;;4985770;28;20177;-77
2022/02/11 11:12:02;;;;;;;1.33;1.00;;;4.80;99.90;;;;;;4986835;28;20204;-77
2022/02/11 11:14:28;;;;;;;2.00;0.80;;;4.90;99.90;;;;;;5005321;28;20283;-77
2022/02/11 11:17:00;;;;;;;2.70;0.93;;;4.90;99.90;;;;;;4991307;28;20736;-76
2022/02/11 11:19:30;;;;;;;2.40;0.80;;;4.90;99.90;;;;;;4985631;28;20291;-78
2022/02/11 11:22:15;;;;;;;0.80;0.70;;;4.90;99.90;;;;;;5002537;28;20239;-77
2022/02/11 11:24:47;;;;;;;0.87;0.50;;;4.90;99.90;;;;;;5003828;28;20194;-79
2022/02/11 11:27:33;;;;;;;2.00;0.70;;;4.90;99.90;;;;;;4985422;28;20275;-79
2022/02/11 11:30:27;;;;;;;1.00;0.53;;;5.00;99.90;;;;;;4992499;28;20493;-78
2022/02/11 11:33:05;;;;;;;1.23;0.50;;;5.00;99.90;;;;;;4987872;28;20194;-77
2022/02/11 11:35:31;;;;;;;1.63;0.50;;;5.00;99.90;;;;;;4982111;28;20326;-76
2022/02/11 11:38:25;;;;;;;1.40;0.60;;;5.00;99.90;;;;;;5006070;28;20212;-80
2022/02/11 11:41:08;;;;;;;0.90;0.50;;;5.10;99.90;;;;;;4992144;28;20176;-77
2022/02/11 11:43:39;;;;;;;0.63;0.60;;;5.00;99.90;;;;;;4989700;28;20227;-77
2022/02/11 11:46:17;;;;;;;0.43;0.43;;;5.10;99.90;;;;;;4987870;28;20180;-77
2022/02/11 11:49:05;;;;;;;1.40;0.50;;;5.20;99.90;;;;;;4985121;28;20526;-77
2022/02/11 11:51:37;;;;;;;1.03;0.60;;;5.20;99.90;;;;;;4987145;28;20184;-77
2022/02/11 11:54:18;;;;;;;0.80;0.63;;;5.20;99.90;;;;;;4992181;28;20452;-80
2022/02/11 11:56:48;;;;;;;0.57;0.50;;;5.10;99.90;;;;;;4991795;28;20215;-77
2022/02/11 11:59:16;;;;;;;0.50;0.50;;;5.10;99.90;;;;;;4993782;28;20203;-78
2022/02/11 12:02:04;;;;;;;2.40;0.50;;;5.20;99.90;;;;;;5001040;28;20241;-78
2022/02/11 12:04:45;;;;;;;0.80;0.60;;;5.20;99.90;;;;;;4984690;28;20192;-78
2022/02/11 12:07:13;;;;;;;1.10;1.00;;;5.10;99.90;;;;;;5005795;28;20181;-78
2022/02/11 12:09:41;;;;;;;1.67;0.60;;;5.10;99.90;;;;;;5001397;28;20219;-77
2022/02/11 12:12:09;;;;;;;0.73;0.60;;;5.10;99.90;;;;;;5001747;28;20195;-78
2022/02/11 12:14:37;;;;;;;0.90;0.60;;;5.10;99.90;;;;;;4989843;28;20184;-76
2022/02/11 12:17:04;;;;;;;0.63;0.60;;;5.10;99.90;;;;;;5005479;28;20231;-78
2022/02/11 12:19:32;;;;;;;0.70;0.70;;;5.10;99.90;;;;;;4991140;28;20200;-79
2022/02/11 12:21:59;;;;;;;1.30;0.80;;;5.20;99.90;;;;;;4994059;28;20642;-77
2022/02/11 12:27:23;;;;;;;1.40;0.40;;;5.50;99.90;;;;;;4995061;28;20241;-79
2022/02/11 12:30:18;;;;;;;1.40;0.70;;;5.50;99.90;;;;;;5016121;28;20238;-77
2022/02/11 12:32:46;;;;;;;0.77;0.60;;;5.50;99.90;;;;;;4997270;28;20181;-78
2022/02/11 12:35:21;;;;;;;1.00;0.70;;;5.40;99.90;;;;;;4987730;28;20188;-77
2022/02/11 12:37:47;;;;;;;0.70;0.50;;;5.40;99.90;;;;;;4995775;28;20210;-77
2022/02/11 12:40:15;;;;;;;1.67;0.63;;;5.40;99.90;;;;;;5006037;28;20204;-76
2022/02/11 12:42:48;;;;;;;1.17;0.90;;;5.30;99.90;;;;;;4994964;28;20377;-77
2022/02/11 12:45:22;;;;;;;0.80;0.80;;;5.40;99.90;;;;;;5009550;28;20580;-77
2022/02/11 12:47:51;;;;;;;1.43;0.90;;;5.30;99.90;;;;;;5009572;28;20295;-79
2022/02/11 12:50:28;;;;;;;0.63;0.60;;;5.30;99.90;;;;;;4991771;28;20179;-79
2022/02/11 12:52:56;;;;;;;0.47;0.40;;;5.30;99.90;;;;;;4993348;28;20277;-79
2022/02/11 12:55:22;;;;;;;0.53;0.50;;;5.30;99.90;;;;;;4990069;28;20176;-77
2022/02/11 12:58:01;;;;;;;1.13;0.60;;;5.30;99.90;;;;;;4988944;28;20219;-76
2022/02/11 13:00:28;;;;;;;0.87;0.63;;;5.40;99.90;;;;;;5003827;28;20188;-79
2022/02/11 13:02:58;;;;;;;1.10;1.00;;;5.30;99.90;;;;;;5003502;28;20196;-78
2022/02/11 13:05:26;;;;;;;1.73;0.80;;;5.40;99.90;;;;;;5010138;28;20180;-77
2022/02/11 13:07:54;;;;;;;1.53;1.00;;;5.40;99.90;;;;;;4992044;28;20203;-79
2022/02/11 13:10:25;;;;;;;1.73;0.80;;;5.40;99.90;;;;;;4993639;28;20502;-77
2022/02/11 13:12:53;;;;;;;1.10;0.73;;;5.40;99.90;;;;;;4995835;28;20271;-77
2022/02/11 13:15:20;;;;;;;2.33;1.73;;;5.40;99.90;;;;;;4992408;28;20184;-79
2022/02/11 13:17:47;;;;;;;5.03;2.63;;;5.40;99.90;;;;;;4998509;28;20681;-77
2022/02/11 13:20:19;;;;;;;2.27;1.77;;;5.40;99.90;;;;;;4992431;28;20191;-77
2022/02/11 13:22:46;;;;;;;1.63;1.40;;;5.40;99.90;;;;;;5011475;28;20298;-77
2022/02/11 13:25:14;;;;;;;1.47;1.30;;;5.30;99.90;;;;;;5009904;28;20179;-77
2022/02/11 13:27:50;;;;;;;2.10;1.03;;;5.20;99.90;;;;;;4997291;28;20208;-78
2022/02/11 13:30:29;;;;;;;1.43;1.33;;;5.40;99.90;;;;;;4995594;28;20232;-77
2022/02/11 13:32:59;;;;;;;0.97;0.90;;;5.40;99.90;;;;;;4990250;28;20214;-77
2022/02/11 13:35:25;;;;;;;3.70;2.60;;;5.40;99.90;;;;;;4992981;28;20554;-79
2022/02/11 13:37:54;;;;;;;4.07;2.47;;;5.50;99.90;;;;;;5008878;28;20215;-79
2022/02/11 13:40:21;;;;;;;4.60;3.07;;;5.40;99.90;;;;;;4992958;28;20196;-77
2022/02/11 13:43:03;;;;;;;5.43;3.27;;;5.50;99.90;;;;;;4995620;28;20272;-77
2022/02/11 13:45:30;;;;;;;3.53;2.70;;;5.50;99.90;;;;;;4986263;28;20220;-77
2022/02/11 13:48:16;;;;;;;2.93;2.27;;;5.40;99.90;;;;;;5014025;28;20245;-77
2022/02/11 13:51:00;;;;;;;1.27;1.17;;;5.30;99.90;;;;;;4994515;28;20186;-77
2022/02/11 13:53:39;;;;;;;1.40;1.20;;;5.20;99.90;;;;;;5006531;28;20219;-77
2022/02/11 13:56:12;;;;;;;3.30;2.20;;;5.10;99.90;;;;;;5011537;28;20214;-77
2022/02/11 13:58:39;;;;;;;1.70;1.60;;;5.20;99.90;;;;;;5005393;28;20739;-76
2022/02/11 14:01:25;;;;;;;1.40;1.30;;;5.00;99.90;;;;;;4995482;28;20187;-76
2022/02/11 14:03:52;;;;;;;2.13;1.80;;;4.80;99.90;;;;;;5007817;28;20197;-78
2022/02/11 14:06:18;;;;;;;1.60;1.43;;;4.80;99.90;;;;;;5022910;28;20452;-78
2022/02/11 14:08:45;;;;;;;1.57;1.20;;;4.70;99.90;;;;;;5002399;28;20337;-77
2022/02/11 14:11:19;;;;;;;2.10;1.33;;;4.50;99.90;;;;;;5009897;28;20195;-78
2022/02/11 14:13:45;;;;;;;2.20;1.47;;;4.40;99.90;;;;;;5018167;28;20252;-76
2022/02/11 14:16:11;;;;;;;1.60;1.50;;;4.40;99.90;;;;;;4995990;28;20740;-78
2022/02/11 14:18:42;;;;;;;3.47;1.93;;;4.40;99.90;;;;;;5009263;28;20298;-79
2022/02/11 14:21:11;;;;;;;3.83;2.60;;;4.50;99.90;;;;;;4991828;28;20220;-77
2022/02/11 14:23:36;;;;;;;3.00;2.27;;;4.40;99.90;;;;;;4995312;28;20585;-79
2022/02/11 14:26:02;;;;;;;3.33;2.33;;;4.60;99.90;;;;;;4991903;28;20184;-78
2022/02/11 14:28:29;;;;;;;3.20;2.37;;;4.50;99.90;;;;;;5007915;28;20236;-76
2022/02/11 14:30:55;;;;;;;3.53;2.33;;;4.60;99.90;;;;;;5010176;28;20266;-77
2022/02/11 14:33:21;;;;;;;3.40;2.80;;;4.50;99.90;;;;;;5009431;28;20290;-77
2022/02/11 14:35:47;;;;;;;3.70;3.07;;;4.50;99.90;;;;;;4995618;28;20192;-77
2022/02/11 14:38:13;;;;;;;3.70;3.00;;;4.40;99.90;;;;;;5006659;28;20216;-77
2022/02/11 14:41:46;;;;;;;5.23;3.73;;;4.40;99.90;;;;;;5005973;28;20177;-80
2022/02/11 14:43:27;;;;;;;4.00;3.60;;;4.30;99.90;;;;;;4991926;28;20191;-76
2022/02/11 14:45:54;;;;;;;4.13;3.33;;;4.30;99.90;;;;;;5010070;28;20191;-78
2022/02/11 14:48:20;;;;;;;4.43;3.80;;;4.40;99.90;;;;;;5009945;28;20204;-77
2022/02/11 14:50:46;;;;;;;6.17;4.33;;;4.30;99.90;;;;;;4999444;28;20187;-76
2022/02/11 14:53:11;;;;;;;4.97;4.20;;;4.30;99.90;;;;;;4997479;28;20183;-76
2022/02/11 14:55:37;;;;;;;5.93;4.30;;;4.20;99.90;;;;;;5004982;28;20187;-77
2022/02/11 14:58:03;;;;;;;6.17;4.57;;;4.20;99.90;;;;;;4990222;28;20294;-77
2022/02/11 15:00:29;;;;;;;5.80;4.27;;;4.30;99.90;;;;;;5006855;28;20195;-77
2022/02/11 15:02:56;;;;;;;4.70;4.20;;;4.30;99.90;;;;;;4997280;28;20571;-79
2022/02/11 15:05:22;;;;;;;5.73;4.37;;;4.30;99.90;;;;;;4991045;28;20191;-77
2022/02/11 15:07:48;;;;;;;6.33;4.60;;;4.30;99.90;;;;;;4990761;28;20208;-79
2022/02/11 15:10:14;;;;;;;5.33;4.07;;;4.20;99.90;;;;;;5004513;28;20188;-77
2022/02/11 15:12:40;;;;;;;5.87;4.07;;;4.20;99.90;;;;;;5003705;28;20279;-77
2022/02/11 15:15:06;;;;;;;5.60;4.30;;;4.20;99.90;;;;;;5011781;28;20734;-77
2022/02/11 15:17:32;;;;;;;5.63;3.80;;;4.30;99.90;;;;;;5007077;28;20212;-79
2022/02/11 15:19:57;;;;;;;6.13;4.57;;;4.30;99.90;;;;;;5005244;28;20187;-77
2022/02/11 15:22:23;;;;;;;5.07;4.00;;;4.40;99.90;;;;;;5011728;28;20654;-77
2022/02/11 15:24:50;;;;;;;6.47;4.50;;;4.30;99.90;;;;;;4999276;28;20215;-77
2022/02/11 15:27:16;;;;;;;5.03;4.47;;;4.30;99.90;;;;;;5010956;28;20179;-78
2022/02/11 15:29:42;;;;;;;5.53;4.53;;;4.40;99.90;;;;;;4991691;28;20180;-79
2022/02/11 15:32:10;;;;;;;6.20;4.40;;;4.40;99.90;;;;;;5005919;28;20268;-79
2022/02/11 15:34:36;;;;;;;8.23;4.93;;;4.40;99.90;;;;;;5001472;28;20260;-79
2022/02/11 15:37:02;;;;;;;5.00;4.17;;;4.40;99.90;;;;;;5008659;28;20211;-79
2022/02/11 15:39:28;;;;;;;6.67;4.67;;;4.30;99.90;;;;;;4998043;28;20303;-78
2022/02/11 15:41:53;;;;;;;6.13;4.57;;;4.30;99.90;;;;;;5009791;28;20180;-79
2022/02/11 15:44:19;;;;;;;4.83;4.23;;;4.30;99.90;;;;;;4993775;28;20266;-77
2022/02/11 15:46:45;;;;;;;4.60;3.80;;;4.30;99.90;;;;;;5004354;28;20187;-77
2022/02/11 15:49:10;;;;;;;6.43;3.93;;;4.30;99.90;;;;;;4993365;28;20554;-79
2022/02/11 15:51:36;;;;;;;5.70;3.57;;;4.30;99.90;;;;;;5000839;28;20386;-77
2022/02/11 15:54:02;;;;;;;5.13;3.40;;;4.30;99.90;;;;;;4992157;28;20550;-77
2022/02/11 15:56:28;;;;;;;4.20;3.23;;;4.30;99.90;;;;;;5001445;28;20735;-78
2022/02/11 15:58:53;;;;;;;5.40;3.37;;;4.20;99.90;;;;;;4988923;28;20296;-77
2022/02/11 16:01:19;;;;;;;5.43;3.83;;;4.20;99.90;;;;;;5012771;28;20188;-78
2022/02/11 16:03:45;;;;;;;5.50;3.60;;;4.20;99.90;;;;;;5011690;28;20184;-76
2022/02/11 16:06:11;;;;;;;5.73;3.63;;;4.20;99.90;;;;;;5003548;28;20208;-78
2022/02/11 16:08:36;;;;;;;4.53;3.27;;;4.20;99.90;;;;;;5002142;28;20208;-77
2022/02/11 16:11:03;;;;;;;3.87;2.80;;;4.30;99.90;;;;;;4989121;28;20176;-77
2022/02/11 16:13:28;;;;;;;3.60;3.03;;;4.20;99.90;;;;;;4991755;28;20183;-77
2022/02/11 16:15:54;;;;;;;2.60;2.27;;;4.10;99.90;;;;;;5001596;28;20246;-76
2022/02/11 16:18:23;;;;;;;2.47;2.17;;;4.10;99.90;;;;;;5009849;28;20563;-76
2022/02/11 16:20:50;;;;;;;3.40;1.93;;;4.00;99.90;;;;;;4986629;28;20575;-76
2022/02/11 16:23:18;;;;;;;2.37;1.50;;;4.00;99.90;;;;;;5009468;28;20175;-77
2022/02/11 16:25:45;;;;;;;3.57;1.80;;;3.80;99.90;;;;;;5004191;28;20184;-76
2022/02/11 16:28:13;;;;;;;2.13;1.30;;;3.80;99.90;;;;;;5014983;28;20580;-76
2022/02/11 16:30:39;;;;;;;2.47;1.33;;;3.80;99.90;;;;;;4997271;28;20191;-78
2022/02/11 16:33:06;;;;;;;4.07;1.30;;;3.80;99.90;;;;;;4993675;28;20630;-79
2022/02/11 16:35:32;;;;;;;3.03;1.20;;;3.70;99.90;;;;;;4991886;28;20191;-76
2022/02/11 16:38:00;;;;;;;2.30;0.90;;;3.60;99.90;;;;;;5011579;28;20327;-76
2022/02/11 16:40:27;;;;;;;1.77;1.10;;;3.60;99.90;;;;;;4985295;28;20641;-80
2022/02/11 16:42:52;;;;;;;3.97;2.00;;;3.60;99.90;;;;;;4989027;28;20266;-77